NA73 weather

Welstad Farms Airstrip
Upham, North Dakota, United States

Public forecast

Using degrees Fahrenheit for public forecast. Weather courtesy of forecast.io.

METAR (pilot weather report)

Closest report is Minot Air Force Base, 16.8 nm (31.1 km) WSW. Retrieved 2019/07/17 13:56 UTC (41 minutes ago):

KMIB 171356Z AUTO 22005KT 10SM BKN010 OVC016 20/18 A2975 RMK AO2 SLP074 T01960182 $

TAF (pilot weather forecast)

Closest forecast is Minot Air Force Base, 16.8 nm (31.1 km) WSW. Retrieved 2019/07/17 09:03 UTC (6 hours ago):

TAF KMIB 170900Z 1709/1815 17006KT 8000 -SHRA BKN015 BKN040 BKN060 QNH2974INS BECMG 1711/1712 19009KT 9999 NSW SCT020 BKN040 QNH2970INS BECMG 1718/1719 23009KT 9999 FEW020 SCT040 QNH2990INS BECMG 1813/1814 24010G15KT 9999 FEW080 SCT110 QNH2957INS TX27/1723Z TN17/1712Z